Portada
METAR-TAF:

METAR-TAF

Aeroports :

Meierwik

Glücksburg, Alemanya

latitud: 54-50N, longitud: 009-30E, altitud: 27 m

Observació

L'informe es va fer fa 24 minuts, a les 21:20 UTC
Vent 4 kt del Nord/Nord-Oest
Temperatura 0°C
Humitat 86%
Pressió 999 hPa

METAR: ETGG 262120Z AUTO 33004KT //// // ////// 00/M02 Q0999 ///

Hora: 22:44 (21:44 UTC)


TAF: manca

Observacions i pronòstics meteorològics de més de 4000 aeroports (METAR i TAF).

Les estacions disponibles són els punts grocs i vermells al mapa.

Posi el ratolí al punt desitjat per veure el nom de l'estació.

Feu clic per veure les observacions i els pronòstics meteorològics.

Per canviar el mapa: feu clic els botons verds amb una creu de color negre per apropar; al botó verd amb un guió per allunyar la imatge; o en les fletxes verdes per a mapes adjacents.


METAR-TAF: